sensor_id;sensor_type;location;lat;lon;timestamp;P1;durP1;ratioP1;P2;durP2;ratioP2
56399;SDS011;42298;53.638;9.876;2022-10-16T00:00:15;14.30;;;8.23;;
56399;SDS011;42298;53.638;9.876;2022-10-16T00:02:40;14.48;;;9.27;;
56399;SDS011;42298;53.638;9.876;2022-10-16T00:05:05;13.73;;;9.27;;
56399;SDS011;42298;53.638;9.876;2022-10-16T00:07:31;13.77;;;8.45;;
56399;SDS011;42298;53.638;9.876;2022-10-16T00:09:56;14.45;;;9.45;;
56399;SDS011;42298;53.638;9.876;2022-10-16T00:12:21;15.40;;;9.07;;
56399;SDS011;42298;53.638;9.876;2022-10-16T00:14:47;12.68;;;7.82;;
56399;SDS011;42298;53.638;9.876;2022-10-16T00:17:12;15.68;;;8.73;;
56399;SDS011;42298;53.638;9.876;2022-10-16T00:19:37;15.02;;;8.52;;
56399;SDS011;42298;53.638;9.876;2022-10-16T00:22:04;12.68;;;7.88;;
56399;SDS011;42298;53.638;9.876;2022-10-16T00:24:29;13.45;;;8.02;;
56399;SDS011;42298;53.638;9.876;2022-10-16T00:26:55;13.45;;;7.60;;
56399;SDS011;42298;53.638;9.876;2022-10-16T00:29:20;13.25;;;7.10;;
56399;SDS011;42298;53.638;9.876;2022-10-16T00:31:45;11.52;;;7.18;;
56399;SDS011;42298;53.638;9.876;2022-10-16T00:34:11;10.95;;;6.97;;
56399;SDS011;42298;53.638;9.876;2022-10-16T00:36:36;10.23;;;5.78;;
56399;SDS011;42298;53.638;9.876;2022-10-16T00:39:02;13.57;;;6.35;;
56399;SDS011;42298;53.638;9.876;2022-10-16T00:41:28;10.15;;;5.95;;
56399;SDS011;42298;53.638;9.876;2022-10-16T00:43:55;9.32;;;4.78;;
56399;SDS011;42298;53.638;9.876;2022-10-16T00:46:26;12.48;;;5.20;;
56399;SDS011;42298;53.638;9.876;2022-10-16T00:49:11;9.65;;;4.60;;
56399;SDS011;42298;53.638;9.876;2022-10-16T00:54:07;11.45;;;5.22;;
56399;SDS011;42298;53.638;9.876;2022-10-16T00:56:35;9.20;;;4.63;;
56399;SDS011;42298;53.638;9.876;2022-10-16T00:59:04;10.55;;;4.65;;
56399;SDS011;42298;53.638;9.876;2022-10-16T01:01:36;11.55;;;4.40;;
56399;SDS011;42298;53.638;9.876;2022-10-16T01:04:01;9.23;;;4.40;;
56399;SDS011;42298;53.638;9.876;2022-10-16T01:06:36;12.75;;;4.47;;
56399;SDS011;42298;53.638;9.876;2022-10-16T01:14:32;9.23;;;4.10;;
56399;SDS011;42298;53.638;9.876;2022-10-16T01:17:06;8.32;;;4.00;;
56399;SDS011;42298;53.638;9.876;2022-10-16T01:22:50;9.68;;;4.10;;
56399;SDS011;42298;53.638;9.876;2022-10-16T01:25:36;10.75;;;3.80;;
56399;SDS011;42298;53.638;9.876;2022-10-16T01:28:10;8.65;;;4.28;;
56399;SDS011;42298;53.638;9.876;2022-10-16T01:30:38;6.82;;;3.63;;
56399;SDS011;42298;53.638;9.876;2022-10-16T01:33:11;8.95;;;3.53;;
56399;SDS011;42298;53.638;9.876;2022-10-16T01:35:44;9.70;;;3.70;;
56399;SDS011;42298;53.638;9.876;2022-10-16T01:38:17;9.77;;;3.58;;
56399;SDS011;42298;53.638;9.876;2022-10-16T01:40:49;11.13;;;3.50;;
56399;SDS011;42298;53.638;9.876;2022-10-16T01:43:19;8.95;;;3.67;;
56399;SDS011;42298;53.638;9.876;2022-10-16T01:45:48;10.77;;;4.13;;
56399;SDS011;42298;53.638;9.876;2022-10-16T01:48:14;8.38;;;3.45;;
56399;SDS011;42298;53.638;9.876;2022-10-16T01:50:44;10.35;;;3.20;;
56399;SDS011;42298;53.638;9.876;2022-10-16T01:53:17;7.55;;;3.30;;
56399;SDS011;42298;53.638;9.876;2022-10-16T01:55:44;6.40;;;3.17;;
56399;SDS011;42298;53.638;9.876;2022-10-16T01:58:13;7.05;;;3.20;;
56399;SDS011;42298;53.638;9.876;2022-10-16T02:00:41;8.95;;;3.42;;
56399;SDS011;42298;53.638;9.876;2022-10-16T02:03:08;7.50;;;3.10;;
56399;SDS011;42298;53.638;9.876;2022-10-16T02:05:38;7.70;;;3.28;;
56399;SDS011;42298;53.638;9.876;2022-10-16T02:08:07;5.18;;;2.90;;
56399;SDS011;42298;53.638;9.876;2022-10-16T02:10:34;6.65;;;3.05;;
56399;SDS011;42298;53.638;9.876;2022-10-16T02:13:03;8.35;;;3.30;;
56399;SDS011;42298;53.638;9.876;2022-10-16T02:15:30;6.32;;;3.08;;
56399;SDS011;42298;53.638;9.876;2022-10-16T02:17:55;8.57;;;2.95;;
56399;SDS011;42298;53.638;9.876;2022-10-16T02:20:22;6.50;;;2.95;;
56399;SDS011;42298;53.638;9.876;2022-10-16T02:22:52;8.90;;;3.22;;
56399;SDS011;42298;53.638;9.876;2022-10-16T02:25:21;4.80;;;2.67;;
56399;SDS011;42298;53.638;9.876;2022-10-16T02:27:57;8.30;;;3.20;;
56399;SDS011;42298;53.638;9.876;2022-10-16T02:32:56;6.00;;;2.53;;
56399;SDS011;42298;53.638;9.876;2022-10-16T02:35:24;6.18;;;2.90;;
56399;SDS011;42298;53.638;9.876;2022-10-16T02:37:50;7.82;;;2.92;;
56399;SDS011;42298;53.638;9.876;2022-10-16T02:40:17;7.13;;;3.13;;
56399;SDS011;42298;53.638;9.876;2022-10-16T02:42:43;4.78;;;2.42;;
56399;SDS011;42298;53.638;9.876;2022-10-16T02:45:09;6.85;;;2.80;;
56399;SDS011;42298;53.638;9.876;2022-10-16T02:47:36;6.38;;;2.80;;
56399;SDS011;42298;53.638;9.876;2022-10-16T02:50:02;6.80;;;2.50;;
56399;SDS011;42298;53.638;9.876;2022-10-16T02:52:28;8.50;;;2.75;;
56399;SDS011;42298;53.638;9.876;2022-10-16T02:54:53;7.90;;;2.65;;
56399;SDS011;42298;53.638;9.876;2022-10-16T02:57:19;5.13;;;2.47;;
56399;SDS011;42298;53.638;9.876;2022-10-16T02:59:44;5.72;;;2.60;;
56399;SDS011;42298;53.638;9.876;2022-10-16T03:02:11;6.20;;;2.25;;
56399;SDS011;42298;53.638;9.876;2022-10-16T03:04:36;3.50;;;2.00;;
56399;SDS011;42298;53.638;9.876;2022-10-16T03:07:02;9.77;;;2.83;;
56399;SDS011;42298;53.638;9.876;2022-10-16T03:09:28;10.10;;;2.97;;
56399;SDS011;42298;53.638;9.876;2022-10-16T03:11:53;6.75;;;2.60;;
56399;SDS011;42298;53.638;9.876;2022-10-16T03:14:18;4.57;;;2.15;;
56399;SDS011;42298;53.638;9.876;2022-10-16T03:16:44;6.72;;;2.45;;
56399;SDS011;42298;53.638;9.876;2022-10-16T03:19:09;5.13;;;2.45;;
56399;SDS011;42298;53.638;9.876;2022-10-16T03:21:35;8.20;;;2.00;;
56399;SDS011;42298;53.638;9.876;2022-10-16T03:24:00;4.57;;;2.30;;
56399;SDS011;42298;53.638;9.876;2022-10-16T03:26:25;6.88;;;2.60;;
56399;SDS011;42298;53.638;9.876;2022-10-16T03:28:52;6.03;;;2.35;;
56399;SDS011;42298;53.638;9.876;2022-10-16T03:31:17;6.32;;;2.25;;
56399;SDS011;42298;53.638;9.876;2022-10-16T03:33:42;5.47;;;2.20;;
56399;SDS011;42298;53.638;9.876;2022-10-16T03:36:09;7.50;;;2.45;;
56399;SDS011;42298;53.638;9.876;2022-10-16T03:38:34;6.55;;;2.33;;
56399;SDS011;42298;53.638;9.876;2022-10-16T03:41:00;7.28;;;2.40;;
56399;SDS011;42298;53.638;9.876;2022-10-16T03:43:25;5.28;;;2.30;;
56399;SDS011;42298;53.638;9.876;2022-10-16T03:45:51;9.35;;;2.47;;
56399;SDS011;42298;53.638;9.876;2022-10-16T03:48:16;6.95;;;2.30;;
56399;SDS011;42298;53.638;9.876;2022-10-16T03:50:42;6.53;;;2.35;;
56399;SDS011;42298;53.638;9.876;2022-10-16T03:53:08;8.48;;;2.53;;
56399;SDS011;42298;53.638;9.876;2022-10-16T03:55:34;6.18;;;2.65;;
56399;SDS011;42298;53.638;9.876;2022-10-16T03:57:59;9.25;;;2.85;;
56399;SDS011;42298;53.638;9.876;2022-10-16T04:00:25;6.55;;;2.50;;
56399;SDS011;42298;53.638;9.876;2022-10-16T04:02:50;5.97;;;2.47;;
56399;SDS011;42298;53.638;9.876;2022-10-16T04:05:15;5.60;;;2.40;;
56399;SDS011;42298;53.638;9.876;2022-10-16T04:07:41;7.10;;;2.42;;
56399;SDS011;42298;53.638;9.876;2022-10-16T04:10:06;7.30;;;2.70;;
56399;SDS011;42298;53.638;9.876;2022-10-16T04:12:32;7.60;;;2.90;;
56399;SDS011;42298;53.638;9.876;2022-10-16T04:14:57;9.02;;;2.30;;
56399;SDS011;42298;53.638;9.876;2022-10-16T04:17:23;5.07;;;2.40;;
56399;SDS011;42298;53.638;9.876;2022-10-16T04:19:48;5.90;;;2.40;;
56399;SDS011;42298;53.638;9.876;2022-10-16T04:22:13;7.38;;;2.70;;
56399;SDS011;42298;53.638;9.876;2022-10-16T04:24:39;4.20;;;2.40;;
56399;SDS011;42298;53.638;9.876;2022-10-16T04:27:04;5.47;;;2.00;;
56399;SDS011;42298;53.638;9.876;2022-10-16T04:29:30;4.15;;;2.65;;
56399;SDS011;42298;53.638;9.876;2022-10-16T04:31:55;6.55;;;2.35;;
56399;SDS011;42298;53.638;9.876;2022-10-16T04:34:20;9.27;;;2.40;;
56399;SDS011;42298;53.638;9.876;2022-10-16T04:36:48;5.18;;;2.63;;
56399;SDS011;42298;53.638;9.876;2022-10-16T04:39:14;4.13;;;2.40;;
56399;SDS011;42298;53.638;9.876;2022-10-16T04:41:40;8.52;;;2.72;;
56399;SDS011;42298;53.638;9.876;2022-10-16T04:44:05;5.22;;;2.10;;
56399;SDS011;42298;53.638;9.876;2022-10-16T04:46:30;5.75;;;2.40;;
56399;SDS011;42298;53.638;9.876;2022-10-16T04:48:56;5.15;;;2.35;;
56399;SDS011;42298;53.638;9.876;2022-10-16T04:51:21;4.10;;;2.65;;
56399;SDS011;42298;53.638;9.876;2022-10-16T04:53:46;7.85;;;2.95;;
56399;SDS011;42298;53.638;9.876;2022-10-16T04:56:12;7.10;;;2.45;;
56399;SDS011;42298;53.638;9.876;2022-10-16T04:58:37;9.23;;;2.55;;
56399;SDS011;42298;53.638;9.876;2022-10-16T05:01:03;4.05;;;2.28;;
56399;SDS011;42298;53.638;9.876;2022-10-16T05:03:28;7.28;;;3.42;;
56399;SDS011;42298;53.638;9.876;2022-10-16T05:05:53;8.35;;;3.10;;
56399;SDS011;42298;53.638;9.876;2022-10-16T05:08:19;7.57;;;2.83;;
56399;SDS011;42298;53.638;9.876;2022-10-16T05:10:45;7.60;;;2.80;;
56399;SDS011;42298;53.638;9.876;2022-10-16T05:13:10;9.07;;;2.78;;
56399;SDS011;42298;53.638;9.876;2022-10-16T05:15:36;6.05;;;2.90;;
56399;SDS011;42298;53.638;9.876;2022-10-16T05:18:02;8.93;;;3.40;;
56399;SDS011;42298;53.638;9.876;2022-10-16T05:20:27;8.63;;;3.15;;
56399;SDS011;42298;53.638;9.876;2022-10-16T05:22:53;9.35;;;3.63;;
56399;SDS011;42298;53.638;9.876;2022-10-16T05:25:18;7.90;;;3.42;;
56399;SDS011;42298;53.638;9.876;2022-10-16T05:27:46;9.95;;;4.03;;
56399;SDS011;42298;53.638;9.876;2022-10-16T05:30:13;7.05;;;3.10;;
56399;SDS011;42298;53.638;9.876;2022-10-16T05:32:38;9.65;;;3.70;;
56399;SDS011;42298;53.638;9.876;2022-10-16T05:35:04;7.82;;;3.67;;
56399;SDS011;42298;53.638;9.876;2022-10-16T05:37:29;7.45;;;3.75;;
56399;SDS011;42298;53.638;9.876;2022-10-16T05:39:55;8.45;;;3.80;;
56399;SDS011;42298;53.638;9.876;2022-10-16T05:42:20;8.43;;;3.72;;
56399;SDS011;42298;53.638;9.876;2022-10-16T05:44:46;8.45;;;3.97;;
56399;SDS011;42298;53.638;9.876;2022-10-16T05:47:12;9.00;;;3.60;;
56399;SDS011;42298;53.638;9.876;2022-10-16T05:49:37;12.95;;;4.72;;
56399;SDS011;42298;53.638;9.876;2022-10-16T05:52:03;7.63;;;3.53;;
56399;SDS011;42298;53.638;9.876;2022-10-16T05:54:28;10.20;;;4.15;;
56399;SDS011;42298;53.638;9.876;2022-10-16T05:56:53;13.93;;;5.00;;
56399;SDS011;42298;53.638;9.876;2022-10-16T05:59:19;8.05;;;4.03;;
56399;SDS011;42298;53.638;9.876;2022-10-16T06:01:44;7.53;;;3.85;;
56399;SDS011;42298;53.638;9.876;2022-10-16T06:04:10;11.73;;;4.22;;
56399;SDS011;42298;53.638;9.876;2022-10-16T06:06:35;8.25;;;3.50;;
56399;SDS011;42298;53.638;9.876;2022-10-16T06:09:01;8.50;;;4.03;;
56399;SDS011;42298;53.638;9.876;2022-10-16T06:11:28;10.60;;;3.80;;
56399;SDS011;42298;53.638;9.876;2022-10-16T06:13:56;10.85;;;4.00;;
56399;SDS011;42298;53.638;9.876;2022-10-16T06:16:24;10.23;;;4.40;;
56399;SDS011;42298;53.638;9.876;2022-10-16T06:18:50;8.80;;;4.22;;
56399;SDS011;42298;53.638;9.876;2022-10-16T06:21:21;10.50;;;3.80;;
56399;SDS011;42298;53.638;9.876;2022-10-16T06:23:51;7.38;;;3.85;;
56399;SDS011;42298;53.638;9.876;2022-10-16T06:26:18;9.93;;;3.67;;
56399;SDS011;42298;53.638;9.876;2022-10-16T06:28:45;10.57;;;3.97;;
56399;SDS011;42298;53.638;9.876;2022-10-16T06:31:11;8.75;;;3.80;;
56399;SDS011;42298;53.638;9.876;2022-10-16T06:33:37;7.82;;;3.55;;
56399;SDS011;42298;53.638;9.876;2022-10-16T06:36:04;8.32;;;3.25;;
56399;SDS011;42298;53.638;9.876;2022-10-16T06:38:34;8.65;;;3.35;;
56399;SDS011;42298;53.638;9.876;2022-10-16T06:41:00;7.07;;;3.63;;
56399;SDS011;42298;53.638;9.876;2022-10-16T06:43:26;9.98;;;3.80;;
56399;SDS011;42298;53.638;9.876;2022-10-16T06:45:55;7.35;;;3.28;;
56399;SDS011;42298;53.638;9.876;2022-10-16T06:48:22;10.95;;;3.90;;
56399;SDS011;42298;53.638;9.876;2022-10-16T06:50:58;12.68;;;4.07;;
56399;SDS011;42298;53.638;9.876;2022-10-16T06:53:26;9.75;;;4.43;;
56399;SDS011;42298;53.638;9.876;2022-10-16T06:55:53;8.30;;;3.60;;
56399;SDS011;42298;53.638;9.876;2022-10-16T06:58:19;8.18;;;3.63;;
56399;SDS011;42298;53.638;9.876;2022-10-16T07:00:45;10.30;;;3.90;;
56399;SDS011;42298;53.638;9.876;2022-10-16T07:03:10;12.90;;;3.97;;
56399;SDS011;42298;53.638;9.876;2022-10-16T07:05:39;12.13;;;4.32;;
56399;SDS011;42298;53.638;9.876;2022-10-16T07:08:08;13.50;;;4.25;;
56399;SDS011;42298;53.638;9.876;2022-10-16T07:10:34;6.95;;;3.65;;
56399;SDS011;42298;53.638;9.876;2022-10-16T07:13:00;10.43;;;4.63;;
56399;SDS011;42298;53.638;9.876;2022-10-16T07:15:26;8.25;;;3.53;;
56399;SDS011;42298;53.638;9.876;2022-10-16T07:17:52;5.78;;;3.67;;
56399;SDS011;42298;53.638;9.876;2022-10-16T07:20:17;11.70;;;4.13;;
56399;SDS011;42298;53.638;9.876;2022-10-16T07:22:43;11.02;;;4.55;;
56399;SDS011;42298;53.638;9.876;2022-10-16T07:25:08;7.60;;;3.92;;
56399;SDS011;42298;53.638;9.876;2022-10-16T07:27:36;9.40;;;4.53;;
56399;SDS011;42298;53.638;9.876;2022-10-16T07:30:02;6.85;;;3.80;;
56399;SDS011;42298;53.638;9.876;2022-10-16T07:32:27;9.93;;;4.10;;
56399;SDS011;42298;53.638;9.876;2022-10-16T07:34:53;10.52;;;4.18;;
56399;SDS011;42298;53.638;9.876;2022-10-16T07:37:18;11.98;;;4.68;;
56399;SDS011;42298;53.638;9.876;2022-10-16T07:39:44;10.38;;;4.20;;
56399;SDS011;42298;53.638;9.876;2022-10-16T07:42:09;9.88;;;4.30;;
56399;SDS011;42298;53.638;9.876;2022-10-16T07:44:36;8.02;;;4.10;;
56399;SDS011;42298;53.638;9.876;2022-10-16T07:47:01;8.32;;;3.92;;
56399;SDS011;42298;53.638;9.876;2022-10-16T07:49:27;10.95;;;4.80;;
56399;SDS011;42298;53.638;9.876;2022-10-16T07:51:53;9.75;;;4.40;;
56399;SDS011;42298;53.638;9.876;2022-10-16T07:54:18;10.48;;;4.28;;
56399;SDS011;42298;53.638;9.876;2022-10-16T07:56:43;8.25;;;4.00;;
56399;SDS011;42298;53.638;9.876;2022-10-16T07:59:10;10.77;;;4.88;;
56399;SDS011;42298;53.638;9.876;2022-10-16T08:01:35;10.60;;;4.70;;
56399;SDS011;42298;53.638;9.876;2022-10-16T08:04:01;14.02;;;4.50;;
56399;SDS011;42298;53.638;9.876;2022-10-16T08:06:26;8.63;;;3.95;;
56399;SDS011;42298;53.638;9.876;2022-10-16T08:08:52;7.85;;;3.70;;
56399;SDS011;42298;53.638;9.876;2022-10-16T08:11:17;8.90;;;4.00;;
56399;SDS011;42298;53.638;9.876;2022-10-16T08:13:43;10.38;;;4.50;;
56399;SDS011;42298;53.638;9.876;2022-10-16T08:16:08;12.32;;;4.38;;
56399;SDS011;42298;53.638;9.876;2022-10-16T08:18:35;9.43;;;4.07;;
56399;SDS011;42298;53.638;9.876;2022-10-16T08:21:01;8.80;;;4.22;;
56399;SDS011;42298;53.638;9.876;2022-10-16T08:23:28;8.77;;;4.40;;
56399;SDS011;42298;53.638;9.876;2022-10-16T08:25:54;8.43;;;4.22;;
56399;SDS011;42298;53.638;9.876;2022-10-16T08:28:20;6.97;;;3.30;;
56399;SDS011;42298;53.638;9.876;2022-10-16T08:30:47;7.90;;;3.88;;
56399;SDS011;42298;53.638;9.876;2022-10-16T08:33:12;9.00;;;4.45;;
56399;SDS011;42298;53.638;9.876;2022-10-16T08:35:38;8.93;;;3.60;;
56399;SDS011;42298;53.638;9.876;2022-10-16T08:38:04;11.40;;;4.03;;
56399;SDS011;42298;53.638;9.876;2022-10-16T08:40:33;8.75;;;3.70;;
56399;SDS011;42298;53.638;9.876;2022-10-16T08:48:17;8.48;;;3.40;;
56399;SDS011;42298;53.638;9.876;2022-10-16T08:50:44;6.18;;;3.30;;
56399;SDS011;42298;53.638;9.876;2022-10-16T08:53:31;8.25;;;2.92;;
56399;SDS011;42298;53.638;9.876;2022-10-16T08:56:03;8.93;;;3.30;;
56399;SDS011;42298;53.638;9.876;2022-10-16T08:58:29;8.23;;;3.10;;
56399;SDS011;42298;53.638;9.876;2022-10-16T09:00:56;7.55;;;3.15;;
56399;SDS011;42298;53.638;9.876;2022-10-16T09:11:46;5.90;;;2.80;;
56399;SDS011;42298;53.638;9.876;2022-10-16T09:16:54;4.90;;;2.47;;
56399;SDS011;42298;53.638;9.876;2022-10-16T09:21:57;6.18;;;2.65;;
56399;SDS011;42298;53.638;9.876;2022-10-16T09:24:26;6.85;;;2.40;;
56399;SDS011;42298;53.638;9.876;2022-10-16T09:26:52;7.40;;;2.72;;
56399;SDS011;42298;53.638;9.876;2022-10-16T09:29:18;6.40;;;2.60;;
56399;SDS011;42298;53.638;9.876;2022-10-16T09:31:46;7.05;;;2.65;;
56399;SDS011;42298;53.638;9.876;2022-10-16T09:34:29;5.43;;;2.33;;
56399;SDS011;42298;53.638;9.876;2022-10-16T09:37:05;7.20;;;2.10;;
56399;SDS011;42298;53.638;9.876;2022-10-16T09:39:48;6.00;;;2.40;;
56399;SDS011;42298;53.638;9.876;2022-10-16T09:42:23;5.75;;;2.28;;
56399;SDS011;42298;53.638;9.876;2022-10-16T09:44:55;5.25;;;2.25;;
56399;SDS011;42298;53.638;9.876;2022-10-16T09:47:22;6.55;;;2.22;;
56399;SDS011;42298;53.638;9.876;2022-10-16T09:50:32;6.38;;;2.17;;
56399;SDS011;42298;53.638;9.876;2022-10-16T09:52:51;5.90;;;2.33;;
56399;SDS011;42298;53.638;9.876;2022-10-16T09:55:18;5.07;;;2.10;;
56399;SDS011;42298;53.638;9.876;2022-10-16T09:57:50;6.45;;;2.35;;
56399;SDS011;42298;53.638;9.876;2022-10-16T10:00:16;4.28;;;1.92;;
56399;SDS011;42298;53.638;9.876;2022-10-16T10:02:43;9.13;;;2.45;;
56399;SDS011;42298;53.638;9.876;2022-10-16T10:05:18;5.72;;;2.50;;
56399;SDS011;42298;53.638;9.876;2022-10-16T10:07:52;7.78;;;2.50;;
56399;SDS011;42298;53.638;9.876;2022-10-16T10:10:24;5.15;;;2.20;;
56399;SDS011;42298;53.638;9.876;2022-10-16T10:12:52;6.40;;;2.10;;
56399;SDS011;42298;53.638;9.876;2022-10-16T10:15:18;5.40;;;2.00;;
56399;SDS011;42298;53.638;9.876;2022-10-16T10:17:50;9.40;;;2.58;;
56399;SDS011;42298;53.638;9.876;2022-10-16T10:22:51;7.15;;;2.35;;
56399;SDS011;42298;53.638;9.876;2022-10-16T10:30:52;8.25;;;2.22;;
56399;SDS011;42298;53.638;9.876;2022-10-16T10:33:32;5.75;;;1.80;;
56399;SDS011;42298;53.638;9.876;2022-10-16T10:36:05;8.40;;;2.00;;
56399;SDS011;42298;53.638;9.876;2022-10-16T10:52:43;5.13;;;2.20;;
56399;SDS011;42298;53.638;9.876;2022-10-16T10:58:03;5.28;;;1.85;;
56399;SDS011;42298;53.638;9.876;2022-10-16T11:05:49;4.35;;;1.60;;
56399;SDS011;42298;53.638;9.876;2022-10-16T11:10:52;8.93;;;2.22;;
56399;SDS011;42298;53.638;9.876;2022-10-16T11:13:38;8.88;;;1.70;;
56399;SDS011;42298;53.638;9.876;2022-10-16T11:16:22;3.55;;;1.67;;
56399;SDS011;42298;53.638;9.876;2022-10-16T11:21:43;7.00;;;1.75;;
56399;SDS011;42298;53.638;9.876;2022-10-16T11:24:39;7.07;;;1.83;;
56399;SDS011;42298;53.638;9.876;2022-10-16T11:27:07;5.07;;;1.73;;
56399;SDS011;42298;53.638;9.876;2022-10-16T11:29:39;7.82;;;1.52;;
56399;SDS011;42298;53.638;9.876;2022-10-16T11:32:18;7.55;;;1.58;;
56399;SDS011;42298;53.638;9.876;2022-10-16T11:34:49;4.63;;;1.60;;
56399;SDS011;42298;53.638;9.876;2022-10-16T11:37:23;5.70;;;1.48;;
56399;SDS011;42298;53.638;9.876;2022-10-16T11:39:58;4.75;;;1.70;;
56399;SDS011;42298;53.638;9.876;2022-10-16T11:42:44;6.97;;;1.42;;
56399;SDS011;42298;53.638;9.876;2022-10-16T11:50:54;7.75;;;1.50;;
56399;SDS011;42298;53.638;9.876;2022-10-16T11:56:27;5.57;;;1.77;;
56399;SDS011;42298;53.638;9.876;2022-10-16T12:01:33;5.15;;;1.65;;
56399;SDS011;42298;53.638;9.876;2022-10-16T12:04:13;5.30;;;1.50;;
56399;SDS011;42298;53.638;9.876;2022-10-16T12:06:44;8.25;;;1.77;;
56399;SDS011;42298;53.638;9.876;2022-10-16T12:09:27;6.50;;;1.60;;
56399;SDS011;42298;53.638;9.876;2022-10-16T12:11:55;6.70;;;1.58;;
56399;SDS011;42298;53.638;9.876;2022-10-16T12:16:54;9.07;;;1.85;;
56399;SDS011;42298;53.638;9.876;2022-10-16T12:19:21;7.03;;;1.50;;
56399;SDS011;42298;53.638;9.876;2022-10-16T12:21:48;6.55;;;1.70;;
56399;SDS011;42298;53.638;9.876;2022-10-16T12:27:06;6.45;;;1.70;;
56399;SDS011;42298;53.638;9.876;2022-10-16T12:29:49;7.15;;;1.70;;
56399;SDS011;42298;53.638;9.876;2022-10-16T12:34:57;7.40;;;1.63;;
56399;SDS011;42298;53.638;9.876;2022-10-16T12:37:24;3.63;;;1.40;;
56399;SDS011;42298;53.638;9.876;2022-10-16T12:39:53;4.18;;;1.52;;
56399;SDS011;42298;53.638;9.876;2022-10-16T12:42:22;6.13;;;1.67;;
56399;SDS011;42298;53.638;9.876;2022-10-16T12:44:55;4.03;;;1.40;;
56399;SDS011;42298;53.638;9.876;2022-10-16T12:47:22;7.65;;;1.63;;
56399;SDS011;42298;53.638;9.876;2022-10-16T12:49:50;5.82;;;1.80;;
56399;SDS011;42298;53.638;9.876;2022-10-16T12:52:26;9.20;;;1.92;;
56399;SDS011;42298;53.638;9.876;2022-10-16T12:54:57;6.18;;;1.70;;
56399;SDS011;42298;53.638;9.876;2022-10-16T13:06:13;5.55;;;1.65;;
56399;SDS011;42298;53.638;9.876;2022-10-16T13:17:05;8.85;;;1.80;;
56399;SDS011;42298;53.638;9.876;2022-10-16T13:19:38;4.65;;;1.42;;
56399;SDS011;42298;53.638;9.876;2022-10-16T13:25:18;6.90;;;2.00;;
56399;SDS011;42298;53.638;9.876;2022-10-16T13:27:49;4.88;;;1.83;;
56399;SDS011;42298;53.638;9.876;2022-10-16T13:30:26;6.03;;;1.80;;
56399;SDS011;42298;53.638;9.876;2022-10-16T13:35:29;5.50;;;1.70;;
56399;SDS011;42298;53.638;9.876;2022-10-16T13:38:04;4.43;;;1.55;;
56399;SDS011;42298;53.638;9.876;2022-10-16T13:40:30;5.82;;;1.50;;
56399;SDS011;42298;53.638;9.876;2022-10-16T13:42:56;5.18;;;1.77;;
56399;SDS011;42298;53.638;9.876;2022-10-16T13:45:24;6.60;;;1.40;;
56399;SDS011;42298;53.638;9.876;2022-10-16T13:48:12;7.07;;;1.90;;
56399;SDS011;42298;53.638;9.876;2022-10-16T13:50:37;7.75;;;1.55;;
56399;SDS011;42298;53.638;9.876;2022-10-16T13:53:03;8.85;;;1.65;;
56399;SDS011;42298;53.638;9.876;2022-10-16T13:55:31;7.60;;;1.80;;
56399;SDS011;42298;53.638;9.876;2022-10-16T14:00:57;7.35;;;1.60;;
56399;SDS011;42298;53.638;9.876;2022-10-16T14:03:24;7.30;;;1.80;;
56399;SDS011;42298;53.638;9.876;2022-10-16T14:05:55;8.52;;;1.80;;
56399;SDS011;42298;53.638;9.876;2022-10-16T14:08:24;7.78;;;1.60;;
56399;SDS011;42298;53.638;9.876;2022-10-16T14:10:58;7.07;;;1.50;;
56399;SDS011;42298;53.638;9.876;2022-10-16T14:13:28;5.25;;;1.63;;
56399;SDS011;42298;53.638;9.876;2022-10-16T14:15:59;5.43;;;1.88;;
56399;SDS011;42298;53.638;9.876;2022-10-16T14:18:30;5.35;;;1.40;;
56399;SDS011;42298;53.638;9.876;2022-10-16T14:21:01;5.93;;;1.65;;
56399;SDS011;42298;53.638;9.876;2022-10-16T14:23:30;9.40;;;1.83;;
56399;SDS011;42298;53.638;9.876;2022-10-16T14:26:41;7.38;;;2.00;;
56399;SDS011;42298;53.638;9.876;2022-10-16T14:31:38;9.05;;;2.03;;
56399;SDS011;42298;53.638;9.876;2022-10-16T14:34:22;7.03;;;1.90;;
56399;SDS011;42298;53.638;9.876;2022-10-16T14:37:22;6.05;;;1.65;;
56399;SDS011;42298;53.638;9.876;2022-10-16T14:39:52;11.05;;;2.10;;
56399;SDS011;42298;53.638;9.876;2022-10-16T14:42:19;6.15;;;1.67;;
56399;SDS011;42298;53.638;9.876;2022-10-16T14:44:49;7.88;;;1.85;;
56399;SDS011;42298;53.638;9.876;2022-10-16T14:47:19;7.90;;;1.50;;
56399;SDS011;42298;53.638;9.876;2022-10-16T14:49:49;10.57;;;2.10;;
56399;SDS011;42298;53.638;9.876;2022-10-16T14:52:15;6.00;;;1.52;;
56399;SDS011;42298;53.638;9.876;2022-10-16T14:54:42;6.07;;;1.88;;
56399;SDS011;42298;53.638;9.876;2022-10-16T15:00:03;7.18;;;1.85;;
56399;SDS011;42298;53.638;9.876;2022-10-16T15:02:38;7.90;;;2.05;;
56399;SDS011;42298;53.638;9.876;2022-10-16T15:05:23;10.50;;;1.80;;
56399;SDS011;42298;53.638;9.876;2022-10-16T15:07:51;6.18;;;1.90;;
56399;SDS011;42298;53.638;9.876;2022-10-16T15:10:18;9.25;;;1.65;;
56399;SDS011;42298;53.638;9.876;2022-10-16T15:12:46;7.60;;;1.77;;
56399;SDS011;42298;53.638;9.876;2022-10-16T15:17:52;8.10;;;1.90;;
56399;SDS011;42298;53.638;9.876;2022-10-16T15:20:23;7.28;;;1.80;;
56399;SDS011;42298;53.638;9.876;2022-10-16T15:22:49;8.50;;;2.15;;
56399;SDS011;42298;53.638;9.876;2022-10-16T15:25:29;7.30;;;1.75;;
56399;SDS011;42298;53.638;9.876;2022-10-16T15:27:57;8.18;;;1.67;;
56399;SDS011;42298;53.638;9.876;2022-10-16T15:30:24;8.07;;;1.95;;
56399;SDS011;42298;53.638;9.876;2022-10-16T15:32:49;9.02;;;1.88;;
56399;SDS011;42298;53.638;9.876;2022-10-16T15:35:15;6.93;;;1.80;;
56399;SDS011;42298;53.638;9.876;2022-10-16T15:37:40;9.13;;;1.90;;
56399;SDS011;42298;53.638;9.876;2022-10-16T15:40:06;7.10;;;1.85;;
56399;SDS011;42298;53.638;9.876;2022-10-16T15:42:31;7.60;;;2.13;;
56399;SDS011;42298;53.638;9.876;2022-10-16T15:44:57;8.63;;;1.95;;
56399;SDS011;42298;53.638;9.876;2022-10-16T15:47:22;6.78;;;1.75;;
56399;SDS011;42298;53.638;9.876;2022-10-16T15:49:47;7.82;;;1.90;;
56399;SDS011;42298;53.638;9.876;2022-10-16T15:52:13;10.70;;;2.17;;
56399;SDS011;42298;53.638;9.876;2022-10-16T15:54:38;5.80;;;1.58;;
56399;SDS011;42298;53.638;9.876;2022-10-16T15:57:03;7.93;;;1.90;;
56399;SDS011;42298;53.638;9.876;2022-10-16T15:59:29;7.55;;;2.10;;
56399;SDS011;42298;53.638;9.876;2022-10-16T16:01:55;7.63;;;1.65;;
56399;SDS011;42298;53.638;9.876;2022-10-16T16:04:20;5.82;;;1.65;;
56399;SDS011;42298;53.638;9.876;2022-10-16T16:06:46;6.63;;;1.83;;
56399;SDS011;42298;53.638;9.876;2022-10-16T16:09:11;4.72;;;1.42;;
56399;SDS011;42298;53.638;9.876;2022-10-16T16:11:38;8.18;;;1.95;;
56399;SDS011;42298;53.638;9.876;2022-10-16T16:14:06;6.05;;;1.95;;
56399;SDS011;42298;53.638;9.876;2022-10-16T16:16:35;6.28;;;1.70;;
56399;SDS011;42298;53.638;9.876;2022-10-16T16:19:03;8.93;;;1.80;;
56399;SDS011;42298;53.638;9.876;2022-10-16T16:21:29;5.25;;;1.55;;
56399;SDS011;42298;53.638;9.876;2022-10-16T16:23:55;4.45;;;1.60;;
56399;SDS011;42298;53.638;9.876;2022-10-16T16:26:24;6.05;;;1.83;;
56399;SDS011;42298;53.638;9.876;2022-10-16T16:28:51;5.97;;;1.67;;
56399;SDS011;42298;53.638;9.876;2022-10-16T16:31:20;7.35;;;1.90;;
56399;SDS011;42298;53.638;9.876;2022-10-16T16:33:49;6.82;;;1.90;;
56399;SDS011;42298;53.638;9.876;2022-10-16T16:36:23;6.72;;;1.98;;
56399;SDS011;42298;53.638;9.876;2022-10-16T16:38:50;10.57;;;2.20;;
56399;SDS011;42298;53.638;9.876;2022-10-16T16:41:20;5.13;;;1.77;;
56399;SDS011;42298;53.638;9.876;2022-10-16T16:43:50;7.25;;;2.28;;
56399;SDS011;42298;53.638;9.876;2022-10-16T16:46:18;9.68;;;2.30;;
56399;SDS011;42298;53.638;9.876;2022-10-16T16:48:44;9.32;;;2.22;;
56399;SDS011;42298;53.638;9.876;2022-10-16T16:51:11;8.73;;;2.40;;
56399;SDS011;42298;53.638;9.876;2022-10-16T16:53:43;7.47;;;2.00;;